Terminal Aerodrome Forecast
Issued by NWS

Home | Current Version | Previous Version | Text Only | Print | Product List | Glossary On
Versions: 1 2 3 4 5 6 7 8 9 10 11 12 13 14 15 16
000
FTUS43 KPAH 050520
TAFCGI
TAF
KCGI 050520Z 0506/0606 00000KT 5SM BR SCT250
     FM050900 00000KT 2SM BR SKC
      TEMPO 0509/0513 1SM BR
     FM051400 00000KT 6SM BR SKC
     FM051600 16004KT P6SM SCT040=

USA.gov is the U.S. government's official web portal to all federal, state and local government web resources and services.